createdAt,value
2023-05-10T00:06:17.275Z,17.70
2023-05-10T00:19:05.952Z,17.60
2023-05-10T00:31:37.025Z,17.50
2023-05-10T00:41:20.033Z,17.40
2023-05-10T01:47:56.277Z,17.10
2023-05-10T01:50:08.535Z,17.10
2023-05-10T01:59:00.389Z,17.10
2023-05-10T02:03:28.679Z,17.00
2023-05-10T02:07:58.741Z,17.00
2023-05-10T02:10:02.307Z,17.00
2023-05-10T02:12:06.478Z,17.00
2023-05-10T02:14:13.505Z,17.00
2023-05-10T02:16:20.540Z,17.00
2023-05-10T02:20:42.884Z,17.00
2023-05-10T02:22:47.558Z,17.00
2023-05-10T02:24:51.204Z,17.00
2023-05-10T02:26:55.550Z,17.00
2023-05-10T02:28:59.493Z,17.00
2023-05-10T02:31:14.619Z,17.00
2023-05-10T02:33:18.125Z,17.10
2023-05-10T02:35:53.083Z,17.10
2023-05-10T02:40:37.579Z,17.10
2023-05-10T02:47:34.544Z,17.10
2023-05-10T02:49:38.045Z,17.10
2023-05-10T02:51:54.436Z,17.00
2023-05-10T02:58:38.630Z,17.20
2023-05-10T03:00:42.360Z,17.10
2023-05-10T03:02:56.800Z,17.10
2023-05-10T03:05:00.487Z,17.10
2023-05-10T03:09:36.222Z,17.00
2023-05-10T03:11:49.744Z,17.00
2023-05-10T03:21:01.721Z,17.00
2023-05-10T03:25:25.635Z,16.90
2023-05-10T03:27:31.131Z,16.90
2023-05-10T03:29:35.620Z,16.90
2023-05-10T03:31:39.289Z,17.00
2023-05-10T03:33:49.636Z,17.00
2023-05-10T03:35:53.775Z,17.00
2023-05-10T03:42:37.348Z,17.00
2023-05-10T03:44:48.613Z,16.90
2023-05-10T03:46:54.595Z,16.90
2023-05-10T03:48:58.645Z,16.80
2023-05-10T03:51:02.642Z,16.80
2023-05-10T03:53:06.306Z,16.80
2023-05-10T03:57:43.194Z,16.80
2023-05-10T03:59:47.208Z,16.80
2023-05-10T04:01:50.949Z,16.80
2023-05-10T04:06:13.116Z,16.90
2023-05-10T04:15:37.644Z,17.00
2023-05-10T04:17:41.319Z,17.10
2023-05-10T04:19:45.082Z,17.10
2023-05-10T04:21:48.797Z,17.20
2023-05-10T04:23:53.752Z,17.20
2023-05-10T04:28:27.396Z,17.30
2023-05-10T04:30:33.769Z,17.40
2023-05-10T04:32:37.656Z,17.40
2023-05-10T04:34:42.198Z,17.50
2023-05-10T04:36:49.273Z,17.50
2023-05-10T04:38:53.006Z,17.50
2023-05-10T04:40:57.391Z,17.60
2023-05-10T04:43:01.744Z,17.60
2023-05-10T04:45:12.423Z,17.60
2023-05-10T04:47:17.473Z,17.70
2023-05-10T04:49:21.195Z,17.70
2023-05-10T04:51:25.594Z,17.80
2023-05-10T04:53:37.396Z,17.70
2023-05-10T04:55:40.856Z,17.80
2023-05-10T04:57:44.540Z,17.90
2023-05-10T04:59:50.211Z,18.00
2023-05-10T05:01:56.654Z,18.10
2023-05-10T05:04:00.686Z,18.20
2023-05-10T05:06:05.396Z,18.20
2023-05-10T05:08:10.735Z,18.30
2023-05-10T05:10:14.760Z,18.40
2023-05-10T05:12:20.335Z,18.40
2023-05-10T05:14:26.130Z,18.40
2023-05-10T05:16:29.911Z,18.40
2023-05-10T05:18:36.609Z,18.40
2023-05-10T05:20:40.332Z,18.40
2023-05-10T05:22:45.055Z,18.40
2023-05-10T05:24:49.381Z,18.40
2023-05-10T05:26:53.193Z,18.40
2023-05-10T05:28:57.243Z,18.50
2023-05-10T05:31:00.885Z,18.50
2023-05-10T05:33:05.210Z,18.50
2023-05-10T05:35:11.251Z,18.50
2023-05-10T05:37:17.172Z,18.50
2023-05-10T05:39:20.894Z,18.50
2023-05-10T05:41:25.242Z,18.50
2023-05-10T05:43:29.141Z,18.50
2023-05-10T05:45:33.696Z,18.60
2023-05-10T05:47:37.372Z,18.50
2023-05-10T05:49:41.987Z,18.50
2023-05-10T05:51:47.421Z,18.40
2023-05-10T05:53:52.910Z,18.50
2023-05-10T05:55:56.711Z,18.40
2023-05-10T05:58:00.620Z,18.40
2023-05-10T06:00:05.152Z,18.30
2023-05-10T06:02:09.458Z,18.20
2023-05-10T06:04:13.666Z,18.30
2023-05-10T06:06:17.429Z,18.30
2023-05-10T06:08:23.180Z,18.30
2023-05-10T06:10:27.131Z,18.30
2023-05-10T06:12:30.983Z,18.40
2023-05-10T06:14:34.723Z,18.50
2023-05-10T06:16:38.456Z,18.60
2023-05-10T06:18:42.233Z,18.70
2023-05-10T06:20:45.909Z,18.80
2023-05-10T06:22:49.770Z,18.90
2023-05-10T06:24:54.991Z,18.90
2023-05-10T06:27:01.247Z,19.00
2023-05-10T06:29:04.797Z,19.00
2023-05-10T06:31:08.209Z,19.00
2023-05-10T06:33:12.393Z,19.00
2023-05-10T06:35:16.760Z,19.10
2023-05-10T06:37:20.550Z,19.10
2023-05-10T06:39:24.290Z,19.10
2023-05-10T06:41:29.703Z,19.10
2023-05-10T06:43:33.703Z,19.20
2023-05-10T06:45:37.565Z,19.30
2023-05-10T06:47:41.602Z,19.40
2023-05-10T06:49:45.381Z,19.40
2023-05-10T06:51:49.547Z,19.50
2023-05-10T06:53:53.519Z,19.50
2023-05-10T06:55:57.277Z,19.60
2023-05-10T06:58:02.347Z,19.70
2023-05-10T07:00:07.532Z,19.80
2023-05-10T07:02:11.822Z,19.80
2023-05-10T07:04:18.258Z,19.80
2023-05-10T07:06:32.375Z,20.00
2023-05-10T07:08:37.293Z,20.10
2023-05-10T07:10:41.247Z,20.10
2023-05-10T07:12:45.305Z,20.20
2023-05-10T07:14:50.806Z,20.20
2023-05-10T07:16:54.781Z,20.20
2023-05-10T07:18:58.640Z,20.20
2023-05-10T07:21:02.831Z,20.20
2023-05-10T07:23:07.479Z,20.10
2023-05-10T07:25:11.895Z,20.20
2023-05-10T07:27:15.587Z,19.90
2023-05-10T07:29:19.253Z,19.90
2023-05-10T07:31:24.762Z,19.80
2023-05-10T07:33:28.701Z,19.70
2023-05-10T07:35:32.340Z,19.70
2023-05-10T07:37:36.174Z,19.80
2023-05-10T07:39:40.073Z,19.70
2023-05-10T07:41:43.761Z,19.70
2023-05-10T07:43:47.858Z,19.70
2023-05-10T07:45:52.784Z,19.80
2023-05-10T07:47:59.894Z,19.90
2023-05-10T07:50:03.829Z,20.00
2023-05-10T07:52:07.928Z,20.20
2023-05-10T07:54:11.839Z,20.20
2023-05-10T07:56:26.385Z,20.30
2023-05-10T07:58:29.967Z,20.40
2023-05-10T08:00:33.889Z,20.50
2023-05-10T08:02:37.952Z,20.60
2023-05-10T08:04:43.274Z,20.70
2023-05-10T08:06:47.097Z,20.70
2023-05-10T08:08:51.824Z,20.90
2023-05-10T08:10:55.498Z,21.00
2023-05-10T08:13:00.069Z,21.10
2023-05-10T08:15:04.006Z,21.10
2023-05-10T08:17:07.949Z,21.10
2023-05-10T08:19:11.944Z,21.20
2023-05-10T08:21:21.135Z,21.20
2023-05-10T08:23:24.989Z,21.20
2023-05-10T08:25:28.645Z,21.30
2023-05-10T08:27:32.566Z,21.30
2023-05-10T08:29:48.976Z,21.50
2023-05-10T08:31:54.022Z,21.60
2023-05-10T08:33:57.779Z,21.60
2023-05-10T08:36:01.560Z,21.70
2023-05-10T08:38:06.860Z,21.70
2023-05-10T08:40:12.338Z,21.70
2023-05-10T08:42:16.189Z,21.70
2023-05-10T08:44:20.537Z,21.60
2023-05-10T08:46:24.951Z,21.40
2023-05-10T08:48:29.048Z,21.20
2023-05-10T08:50:37.910Z,21.10
2023-05-10T08:52:42.211Z,20.90
2023-05-10T08:54:47.066Z,20.70
2023-05-10T08:56:50.808Z,20.50
2023-05-10T08:58:58.173Z,20.40
2023-05-10T09:01:01.824Z,20.30
2023-05-10T09:03:06.560Z,20.20
2023-05-10T09:05:11.881Z,20.20
2023-05-10T09:07:15.833Z,20.20
2023-05-10T09:09:24.797Z,20.30
2023-05-10T09:11:31.198Z,20.40
2023-05-10T09:13:35.203Z,20.60
2023-05-10T09:15:38.822Z,20.80
2023-05-10T09:17:42.439Z,20.90
2023-05-10T09:19:47.301Z,20.90
2023-05-10T09:21:51.288Z,21.20
2023-05-10T09:23:55.430Z,21.10
2023-05-10T09:26:05.762Z,20.80
2023-05-10T09:28:12.297Z,20.50
2023-05-10T09:30:19.068Z,20.30
2023-05-10T09:34:48.249Z,20.20
2023-05-10T09:39:17.221Z,20.20
2023-05-10T09:41:22.474Z,20.40
2023-05-10T09:43:28.497Z,20.60
2023-05-10T09:45:32.902Z,20.90
2023-05-10T09:47:37.218Z,21.30
2023-05-10T09:49:41.517Z,21.50
2023-05-10T09:51:45.298Z,21.80
2023-05-10T09:53:52.653Z,22.00
2023-05-10T09:55:56.651Z,22.20
2023-05-10T09:58:03.988Z,22.20
2023-05-10T10:00:16.453Z,22.10
2023-05-10T10:02:20.537Z,22.00
2023-05-10T10:06:42.835Z,21.80
2023-05-10T10:08:49.532Z,21.60
2023-05-10T10:11:04.602Z,21.60
2023-05-10T10:13:10.512Z,21.60
2023-05-10T10:15:16.953Z,21.60
2023-05-10T10:17:21.371Z,21.60
2023-05-10T10:19:25.068Z,21.70
2023-05-10T10:21:28.712Z,21.90
2023-05-10T10:23:33.018Z,22.00
2023-05-10T10:25:36.593Z,22.20
2023-05-10T10:27:45.658Z,22.40
2023-05-10T10:29:54.830Z,22.50
2023-05-10T10:32:05.992Z,22.60
2023-05-10T10:34:09.965Z,22.50
2023-05-10T10:36:14.358Z,22.30
2023-05-10T10:38:18.722Z,22.10
2023-05-10T10:40:31.891Z,21.80
2023-05-10T10:42:48.269Z,21.50
2023-05-10T10:44:51.952Z,21.30
2023-05-10T10:47:09.708Z,21.00
2023-05-10T10:49:13.426Z,20.70
2023-05-10T10:51:17.240Z,20.40
2023-05-10T10:53:21.040Z,19.90
2023-05-10T10:55:27.791Z,19.60
2023-05-10T10:57:48.264Z,19.20
2023-05-10T11:11:28.302Z,19.50
2023-05-10T11:15:54.955Z,19.90
2023-05-10T11:18:00.670Z,20.00
2023-05-10T11:20:14.970Z,20.20
2023-05-10T11:22:20.032Z,20.40
2023-05-10T11:24:25.819Z,20.50
2023-05-10T11:26:34.435Z,20.60
2023-05-10T11:28:44.499Z,20.60
2023-05-10T11:30:48.536Z,20.70
2023-05-10T11:32:52.823Z,20.70
2023-05-10T11:34:58.589Z,20.60
2023-05-10T11:37:02.945Z,20.70
2023-05-10T11:39:06.953Z,20.70
2023-05-10T11:41:12.796Z,20.80
2023-05-10T11:43:16.962Z,21.00
2023-05-10T11:45:20.773Z,21.20
2023-05-10T11:47:24.237Z,21.30
2023-05-10T11:49:28.750Z,21.40
2023-05-10T11:51:36.868Z,21.60
2023-05-10T11:53:40.667Z,21.70
2023-05-10T11:55:44.521Z,21.90
2023-05-10T11:57:48.296Z,22.00
2023-05-10T11:59:56.465Z,22.20
2023-05-10T12:02:00.716Z,22.30
2023-05-10T12:04:04.513Z,22.50
2023-05-10T12:06:09.291Z,22.80
2023-05-10T12:08:18.567Z,23.10
2023-05-10T12:10:28.550Z,23.50
2023-05-10T12:12:39.726Z,23.80
2023-05-10T12:14:44.166Z,24.10
2023-05-10T12:16:48.094Z,24.30
2023-05-10T12:18:52.467Z,24.50
2023-05-10T12:20:56.191Z,24.50
2023-05-10T12:23:03.372Z,24.50
2023-05-10T12:25:09.573Z,24.40
2023-05-10T12:27:13.876Z,24.70
2023-05-10T12:29:17.994Z,24.90
2023-05-10T12:31:21.836Z,25.00
2023-05-10T12:33:25.323Z,25.10
2023-05-10T12:35:29.314Z,25.20
2023-05-10T12:37:37.014Z,25.40
2023-05-10T12:39:42.448Z,25.40
2023-05-10T12:41:47.648Z,25.40
2023-05-10T12:43:53.017Z,25.40
2023-05-10T12:45:57.089Z,25.40
2023-05-10T12:48:00.952Z,25.30
2023-05-10T12:50:05.718Z,25.20
2023-05-10T12:52:10.698Z,25.00
2023-05-10T12:54:19.733Z,25.10
2023-05-10T12:56:23.336Z,25.20
2023-05-10T12:58:35.458Z,25.20
2023-05-10T13:00:40.382Z,25.20
2023-05-10T13:02:44.551Z,25.30
2023-05-10T13:04:50.945Z,25.20
2023-05-10T13:06:56.683Z,25.20
2023-05-10T13:09:00.535Z,25.10
2023-05-10T13:11:04.566Z,24.80
2023-05-10T13:13:08.695Z,24.80
2023-05-10T13:15:13.811Z,24.70
2023-05-10T13:17:19.295Z,24.60
2023-05-10T13:19:23.123Z,24.60
2023-05-10T13:21:27.058Z,24.50
2023-05-10T13:23:31.032Z,24.50
2023-05-10T13:25:35.644Z,24.40
2023-05-10T13:27:39.457Z,24.20
2023-05-10T13:29:44.803Z,24.00
2023-05-10T13:31:51.888Z,23.90
2023-05-10T13:33:57.477Z,23.70
2023-05-10T13:36:00.910Z,23.60
2023-05-10T13:38:04.700Z,23.50
2023-05-10T13:40:10.019Z,23.50
2023-05-10T13:42:14.158Z,23.60
2023-05-10T13:44:17.980Z,23.50
2023-05-10T13:46:21.627Z,23.50
2023-05-10T13:48:27.017Z,23.60
2023-05-10T13:50:31.345Z,23.60
2023-05-10T13:52:35.255Z,23.70
2023-05-10T13:54:39.252Z,23.70
2023-05-10T13:56:45.123Z,23.80
2023-05-10T13:58:48.871Z,23.80
2023-05-10T14:00:52.527Z,23.90
2023-05-10T14:06:47.814Z,24.00
2023-05-10T14:08:52.692Z,24.10
2023-05-10T14:10:58.837Z,24.30
2023-05-10T14:13:02.776Z,24.40
2023-05-10T14:15:07.972Z,24.50
2023-05-10T14:17:12.480Z,24.60
2023-05-10T14:19:16.366Z,24.80
2023-05-10T14:21:20.148Z,24.90
2023-05-10T14:23:26.890Z,25.00
2023-05-10T14:25:32.569Z,25.00
2023-05-10T14:27:36.237Z,25.10
2023-05-10T14:29:39.755Z,25.20
2023-05-10T14:31:46.383Z,25.10
2023-05-10T14:33:50.352Z,25.00
2023-05-10T14:35:53.997Z,24.80
2023-05-10T14:37:57.668Z,24.90
2023-05-10T14:40:02.740Z,24.90
2023-05-10T14:42:06.821Z,24.90
2023-05-10T14:44:11.254Z,25.00
2023-05-10T14:46:14.894Z,25.10
2023-05-10T14:48:18.622Z,25.20
2023-05-10T14:50:36.018Z,25.40
2023-05-10T14:52:41.363Z,25.60
2023-05-10T14:54:45.045Z,25.70
2023-05-10T14:56:51.144Z,25.70
2023-05-10T14:58:55.069Z,25.70
2023-05-10T15:01:02.795Z,25.60
2023-05-10T15:03:09.662Z,25.70
2023-05-10T15:05:13.884Z,25.60
2023-05-10T15:07:19.494Z,25.60
2023-05-10T15:09:22.975Z,25.60
2023-05-10T15:11:26.923Z,25.70
2023-05-10T15:13:32.210Z,26.00
2023-05-10T15:15:35.758Z,26.20
2023-05-10T15:17:39.645Z,26.40
2023-05-10T15:19:43.593Z,26.50
2023-05-10T15:21:48.478Z,26.50
2023-05-10T15:23:52.913Z,26.50
2023-05-10T15:25:56.904Z,26.60
2023-05-10T15:28:00.704Z,26.80
2023-05-10T15:30:08.066Z,26.90
2023-05-10T15:32:12.315Z,27.10
2023-05-10T15:34:16.410Z,27.20
2023-05-10T15:36:20.788Z,27.20
2023-05-10T15:38:24.622Z,27.30
2023-05-10T15:40:28.251Z,27.40
2023-05-10T15:42:32.916Z,27.50
2023-05-10T15:44:39.665Z,27.60
2023-05-10T15:46:45.014Z,27.60
2023-05-10T15:48:48.610Z,27.50
2023-05-10T15:50:52.219Z,27.50
2023-05-10T15:52:56.456Z,27.50
2023-05-10T15:55:00.317Z,27.40
2023-05-10T15:57:04.314Z,27.30
2023-05-10T15:59:08.895Z,27.10
2023-05-10T16:01:13.206Z,27.00
2023-05-10T16:03:18.786Z,26.90
2023-05-10T16:05:22.685Z,26.90
2023-05-10T16:07:26.345Z,26.80
2023-05-10T16:09:30.082Z,26.80
2023-05-10T16:11:33.739Z,26.80
2023-05-10T16:13:38.213Z,26.70
2023-05-10T16:15:42.020Z,26.50
2023-05-10T16:17:45.776Z,26.30
2023-05-10T16:19:51.119Z,26.10
2023-05-10T16:21:54.977Z,26.00
2023-05-10T16:23:59.164Z,25.70
2023-05-10T16:26:03.464Z,25.50
2023-05-10T16:28:07.338Z,25.40
2023-05-10T16:30:11.683Z,25.30
2023-05-10T16:32:15.533Z,25.20
2023-05-10T16:34:20.666Z,25.20
2023-05-10T16:36:25.820Z,25.30
2023-05-10T16:38:29.377Z,25.30
2023-05-10T16:40:33.615Z,25.20
2023-05-10T16:42:37.415Z,25.10
2023-05-10T16:44:41.066Z,24.90
2023-05-10T16:46:45.783Z,24.70
2023-05-10T16:48:49.485Z,24.70
2023-05-10T16:50:53.848Z,24.70
2023-05-10T16:52:59.114Z,24.60
2023-05-10T16:55:03.498Z,24.40
2023-05-10T16:57:07.691Z,24.20
2023-05-10T16:59:11.593Z,24.10
2023-05-10T17:01:15.344Z,23.90
2023-05-10T17:03:19.538Z,23.80
2023-05-10T17:05:23.430Z,23.70
2023-05-10T17:07:29.498Z,23.60
2023-05-10T17:10:00.611Z,23.50
2023-05-10T17:12:07.538Z,23.50
2023-05-10T17:14:11.177Z,23.50
2023-05-10T17:16:15.698Z,23.60
2023-05-10T17:18:20.538Z,23.50
2023-05-10T17:20:24.653Z,23.60
2023-05-10T17:22:28.536Z,23.60
2023-05-10T17:24:33.155Z,23.70
2023-05-10T17:26:38.479Z,23.60
2023-05-10T17:28:42.286Z,23.60
2023-05-10T17:30:46.008Z,23.70
2023-05-10T17:32:49.752Z,23.70
2023-05-10T17:34:53.457Z,23.70
2023-05-10T17:36:57.598Z,23.80
2023-05-10T17:39:01.091Z,23.70
2023-05-10T17:41:04.866Z,23.60
2023-05-10T17:43:10.102Z,23.60
2023-05-10T17:45:13.922Z,23.50
2023-05-10T17:47:17.753Z,23.40
2023-05-10T17:49:21.396Z,23.30
2023-05-10T17:51:25.245Z,23.30
2023-05-10T17:53:29.138Z,23.20
2023-05-10T17:55:33.668Z,23.20
2023-05-10T17:57:38.986Z,23.10
2023-05-10T17:59:44.360Z,23.10
2023-05-10T18:01:48.124Z,23.10
2023-05-10T18:03:53.386Z,23.10
2023-05-10T18:05:57.483Z,23.10
2023-05-10T18:08:02.539Z,23.10
2023-05-10T18:10:07.339Z,23.00
2023-05-10T18:12:11.184Z,22.90
2023-05-10T18:14:16.047Z,22.80
2023-05-10T18:16:23.823Z,22.70
2023-05-10T18:18:27.911Z,22.60
2023-05-10T18:20:31.930Z,22.50
2023-05-10T18:22:36.117Z,22.50
2023-05-10T18:24:40.476Z,22.40
2023-05-10T18:26:44.958Z,22.30
2023-05-10T18:28:48.580Z,22.20
2023-05-10T18:30:52.580Z,22.10
2023-05-10T18:32:58.209Z,22.00
2023-05-10T18:35:01.917Z,22.00
2023-05-10T18:37:07.915Z,21.80
2023-05-10T18:39:12.738Z,21.70
2023-05-10T18:41:16.248Z,21.60
2023-05-10T18:43:20.251Z,21.50
2023-05-10T18:45:24.029Z,21.40
2023-05-10T18:47:27.893Z,21.30
2023-05-10T18:49:33.137Z,21.20
2023-05-10T18:51:36.991Z,21.10
2023-05-10T18:53:41.009Z,21.10
2023-05-10T18:55:45.450Z,21.00
2023-05-10T18:57:50.283Z,20.90
2023-05-10T18:59:54.018Z,20.70
2023-05-10T19:01:57.956Z,20.70
2023-05-10T19:04:01.687Z,20.60
2023-05-10T19:06:07.403Z,20.50
2023-05-10T19:08:11.293Z,20.50
2023-05-10T19:10:15.039Z,20.40
2023-05-10T19:12:18.804Z,20.40
2023-05-10T19:14:22.713Z,20.30
2023-05-10T19:16:27.999Z,20.30
2023-05-10T19:18:32.180Z,20.30
2023-05-10T19:20:37.263Z,20.30
2023-05-10T19:22:58.093Z,20.30
2023-05-10T19:25:06.814Z,20.20
2023-05-10T19:27:10.896Z,20.10
2023-05-10T19:29:14.607Z,20.00
2023-05-10T19:31:18.311Z,19.80
2023-05-10T19:33:22.315Z,19.70
2023-05-10T19:35:26.057Z,19.60
2023-05-10T19:37:29.936Z,19.60
2023-05-10T19:39:35.640Z,19.50
2023-05-10T19:41:39.913Z,19.40
2023-05-10T19:43:43.755Z,19.20
2023-05-10T19:45:47.420Z,19.10
2023-05-10T19:47:51.757Z,19.00
2023-05-10T19:49:55.569Z,18.90
2023-05-10T19:51:59.682Z,18.90
2023-05-10T19:54:03.295Z,18.90
2023-05-10T19:56:08.518Z,18.80
2023-05-10T19:58:12.239Z,18.80
2023-05-10T20:00:16.630Z,18.80
2023-05-10T20:02:20.763Z,18.80
2023-05-10T20:04:24.477Z,18.60
2023-05-10T20:06:28.052Z,18.50
2023-05-10T20:08:31.697Z,18.50
2023-05-10T20:10:35.315Z,18.40
2023-05-10T20:12:40.580Z,18.50
2023-05-10T20:14:44.348Z,18.50
2023-05-10T20:16:48.155Z,18.50
2023-05-10T20:18:53.686Z,18.50
2023-05-10T20:20:59.864Z,18.50
2023-05-10T20:23:03.772Z,18.50
2023-05-10T20:25:08.864Z,18.50
2023-05-10T20:27:13.046Z,18.50
2023-05-10T20:29:18.071Z,18.50
2023-05-10T20:31:21.812Z,18.50
2023-05-10T20:33:25.669Z,18.40
2023-05-10T20:35:29.601Z,18.40
2023-05-10T20:37:33.447Z,18.40
2023-05-10T20:39:36.988Z,18.30
2023-05-10T20:41:40.738Z,18.30
2023-05-10T20:43:44.389Z,18.20
2023-05-10T20:45:49.344Z,18.10
2023-05-10T20:47:53.876Z,18.10
2023-05-10T20:49:57.833Z,18.00
2023-05-10T20:52:01.425Z,17.90
2023-05-10T20:54:05.940Z,17.80
2023-05-10T20:56:09.690Z,17.80
2023-05-10T20:58:13.320Z,17.70
2023-05-10T21:00:17.721Z,17.70
2023-05-10T21:02:23.116Z,17.60
2023-05-10T21:04:26.869Z,17.60
2023-05-10T21:06:32.292Z,17.60
2023-05-10T21:08:36.065Z,17.60
2023-05-10T21:10:39.985Z,17.60
2023-05-10T21:12:43.612Z,17.60
2023-05-10T21:14:47.925Z,17.70
2023-05-10T21:16:51.702Z,17.70
2023-05-10T21:18:56.724Z,17.70
2023-05-10T21:21:00.352Z,17.60
2023-05-10T21:23:03.873Z,17.60
2023-05-10T21:25:08.296Z,17.60
2023-05-10T21:27:12.337Z,17.60
2023-05-10T21:29:15.991Z,17.60
2023-05-10T21:31:19.965Z,17.60
2023-05-10T21:33:23.941Z,17.60
2023-05-10T21:35:29.075Z,17.60
2023-05-10T21:37:34.578Z,17.60
2023-05-10T21:39:38.222Z,17.50
2023-05-10T21:41:42.237Z,17.50
2023-05-10T21:43:46.003Z,17.50
2023-05-10T21:45:49.614Z,17.50
2023-05-10T21:47:53.438Z,17.50
2023-05-10T21:49:57.086Z,17.60
2023-05-10T21:52:02.227Z,17.50
2023-05-10T21:54:06.233Z,17.50
2023-05-10T21:56:09.989Z,17.40
2023-05-10T21:58:13.641Z,17.50
2023-05-10T22:00:19.362Z,17.50
2023-05-10T22:02:23.672Z,17.40
2023-05-10T22:05:01.244Z,17.40
2023-05-10T22:07:11.156Z,17.30
2023-05-10T22:09:14.556Z,17.30
2023-05-10T22:11:19.152Z,17.20
2023-05-10T22:13:24.956Z,17.20
2023-05-10T22:15:28.740Z,17.20
2023-05-10T22:17:32.629Z,17.20
2023-05-10T22:19:36.268Z,17.20
2023-05-10T22:21:40.166Z,17.20
2023-05-10T22:23:45.018Z,17.20
2023-05-10T22:25:48.404Z,17.20
2023-05-10T22:27:51.970Z,17.10
2023-05-10T22:29:55.575Z,17.00
2023-05-10T22:31:59.094Z,16.90
2023-05-10T22:34:02.762Z,16.90
2023-05-10T22:36:07.497Z,16.90
2023-05-10T22:38:11.163Z,16.90
2023-05-10T22:40:17.488Z,16.90
2023-05-10T22:42:21.393Z,16.80
2023-05-10T22:44:24.925Z,16.80
2023-05-10T22:46:29.366Z,16.80
2023-05-10T22:48:33.757Z,16.80
2023-05-10T22:50:38.088Z,16.80
2023-05-10T22:52:41.774Z,16.70
2023-05-10T22:54:45.452Z,16.70
2023-05-10T22:56:50.707Z,16.70
2023-05-10T22:58:54.361Z,16.70
2023-05-10T23:00:57.765Z,16.60
2023-05-10T23:03:01.464Z,16.70
2023-05-10T23:05:05.862Z,16.60
2023-05-10T23:07:09.566Z,16.60
2023-05-10T23:09:12.984Z,16.60
2023-05-10T23:11:16.554Z,16.60
2023-05-10T23:13:21.911Z,16.50
2023-05-10T23:15:25.451Z,16.50
2023-05-10T23:17:29.681Z,16.60
2023-05-10T23:19:33.148Z,16.50
2023-05-10T23:21:36.737Z,16.40
2023-05-10T23:23:41.171Z,16.40
2023-05-10T23:25:44.809Z,16.40
2023-05-10T23:27:48.563Z,16.30
2023-05-10T23:29:55.817Z,16.30
2023-05-10T23:31:59.514Z,16.30
2023-05-10T23:34:03.496Z,16.20
2023-05-10T23:36:07.649Z,16.20
2023-05-10T23:38:11.184Z,16.10
2023-05-10T23:40:15.608Z,16.00
2023-05-10T23:42:19.513Z,16.00
2023-05-10T23:44:22.780Z,16.00
2023-05-10T23:46:27.806Z,16.00
2023-05-10T23:48:31.419Z,15.90
2023-05-10T23:50:34.631Z,15.90
2023-05-10T23:52:37.888Z,15.90
2023-05-10T23:54:41.730Z,15.90
2023-05-10T23:56:46.066Z,15.80
2023-05-10T23:58:49.657Z,15.90
